Brookings, South Dakota
Current Conditions -  °F | °C
As of 9:30 PM on Sunday 21 Dec 2014 (Local Time) from KMDS Reporting Station
Haze Haze  
Wind Chill: 26°   Ceiling: 300
Heat Index: 36°   Visibility: 3mi
Dew Point: 36°   Wind: 15mph
Humidity: 100%   Direction: 170°S
Pressure: 29.51"   Gusts: 20mph
Location:  44.31°N, 96.8°W
Report Text: KMDS 220330Z AUTO 17013G17KT 3SM BR OVC003 02/02 A2951 RMK AO2
Loading
Personal Weather Stations






























Interactive Weather Map New forecast layout! Learn more

10-Day Weather Forecast

Advertisements
Track Severe Weather on mobile